createdAt,value
2022-10-24T00:00:32.610Z,22.06
2022-10-24T00:01:33.203Z,22.06
2022-10-24T00:02:33.808Z,22.08
2022-10-24T00:03:34.404Z,22.11
2022-10-24T00:04:35.002Z,22.07
2022-10-24T00:05:35.607Z,21.96
2022-10-24T00:06:36.206Z,21.93
2022-10-24T00:07:36.809Z,22.08
2022-10-24T00:08:37.408Z,22.06
2022-10-24T00:09:38.003Z,21.99
2022-10-24T00:10:38.606Z,22.06
2022-10-24T00:11:39.263Z,22.00
2022-10-24T00:12:39.864Z,21.99
2022-10-24T00:13:40.461Z,21.87
2022-10-24T00:14:41.064Z,22.04
2022-10-24T00:15:41.659Z,21.92
2022-10-24T00:16:42.256Z,21.98
2022-10-24T00:17:42.858Z,21.96
2022-10-24T00:18:44.303Z,22.07
2022-10-24T00:19:44.906Z,21.96
2022-10-24T00:20:45.499Z,21.92
2022-10-24T00:21:46.097Z,21.95
2022-10-24T00:22:46.969Z,22.06
2022-10-24T00:23:47.798Z,22.02
2022-10-24T00:24:48.382Z,21.92
2022-10-24T00:25:48.981Z,21.89
2022-10-24T00:26:49.582Z,21.91
2022-10-24T00:27:50.178Z,21.99
2022-10-24T00:28:50.908Z,21.95
2022-10-24T00:29:51.538Z,21.95
2022-10-24T00:30:52.138Z,21.93
2022-10-24T00:31:52.747Z,21.87
2022-10-24T00:32:53.339Z,21.95
2022-10-24T00:33:53.942Z,21.96
2022-10-24T00:34:54.544Z,21.92
2022-10-24T00:35:55.196Z,21.98
2022-10-24T00:36:55.798Z,21.93
2022-10-24T00:37:56.396Z,21.87
2022-10-24T00:38:56.998Z,21.92
2022-10-24T00:39:57.601Z,21.95
2022-10-24T00:40:58.253Z,21.89
2022-10-24T00:41:58.857Z,21.85
2022-10-24T00:42:59.451Z,21.87
2022-10-24T00:44:00.100Z,21.89
2022-10-24T00:45:00.750Z,21.87
2022-10-24T00:46:01.356Z,21.89
2022-10-24T00:47:01.947Z,21.87
2022-10-24T00:48:02.609Z,21.89
2022-10-24T00:49:03.208Z,21.91
2022-10-24T00:50:03.807Z,21.89
2022-10-24T00:51:04.405Z,21.89
2022-10-24T00:52:05.005Z,21.93
2022-10-24T00:53:05.607Z,21.96
2022-10-24T00:54:06.208Z,21.91
2022-10-24T00:55:06.874Z,21.89
2022-10-24T00:56:07.469Z,21.92
2022-10-24T00:57:08.070Z,21.89
2022-10-24T00:58:08.671Z,21.95
2022-10-24T00:59:09.272Z,21.89
2022-10-24T01:00:09.873Z,21.91
2022-10-24T01:01:10.551Z,21.95
2022-10-24T01:02:11.199Z,21.91
2022-10-24T01:03:11.803Z,21.91
2022-10-24T01:04:12.400Z,21.92
2022-10-24T01:05:13.004Z,21.92
2022-10-24T01:06:13.603Z,21.82
2022-10-24T01:07:14.207Z,21.92
2022-10-24T01:08:14.800Z,21.89
2022-10-24T01:09:15.402Z,21.91
2022-10-24T01:10:16.067Z,21.89
2022-10-24T01:11:16.674Z,21.85
2022-10-24T01:12:17.271Z,21.82
2022-10-24T01:13:17.871Z,21.89
2022-10-24T01:14:18.473Z,21.82
2022-10-24T01:15:19.069Z,21.85
2022-10-24T01:16:19.668Z,21.85
2022-10-24T01:17:20.267Z,21.92
2022-10-24T01:18:21.716Z,21.83
2022-10-24T01:19:23.115Z,21.85
2022-10-24T01:20:23.711Z,21.87
2022-10-24T01:21:24.312Z,21.89
2022-10-24T01:22:24.913Z,21.80
2022-10-24T01:23:25.518Z,21.79
2022-10-24T01:24:26.116Z,21.83
2022-10-24T01:25:26.715Z,21.80
2022-10-24T01:26:27.318Z,21.79
2022-10-24T01:27:28.072Z,21.80
2022-10-24T01:28:28.669Z,21.80
2022-10-24T01:29:29.261Z,21.79
2022-10-24T01:30:29.857Z,21.83
2022-10-24T01:31:30.458Z,21.76
2022-10-24T01:32:31.060Z,21.80
2022-10-24T01:33:31.666Z,21.80
2022-10-24T01:34:32.259Z,21.80
2022-10-24T01:35:32.862Z,21.77
2022-10-24T01:36:33.465Z,21.77
2022-10-24T01:37:34.067Z,21.76
2022-10-24T01:38:34.665Z,21.76
2022-10-24T01:39:35.267Z,21.76
2022-10-24T01:40:35.864Z,21.77
2022-10-24T01:41:36.467Z,21.72
2022-10-24T01:42:37.215Z,21.76
2022-10-24T01:43:37.816Z,21.79
2022-10-24T01:44:38.469Z,21.76
2022-10-24T01:45:39.922Z,21.73
2022-10-24T01:46:40.518Z,21.75
2022-10-24T01:47:41.117Z,21.75
2022-10-24T01:48:41.765Z,21.77
2022-10-24T01:49:42.368Z,21.73
2022-10-24T01:50:42.965Z,21.77
2022-10-24T01:51:43.565Z,21.76
2022-10-24T01:52:44.329Z,21.72
2022-10-24T01:53:45.076Z,21.75
2022-10-24T01:54:45.673Z,21.77
2022-10-24T01:55:46.269Z,21.73
2022-10-24T01:56:46.867Z,21.70
2022-10-24T01:57:47.459Z,21.72
2022-10-24T01:58:48.056Z,21.70
2022-10-24T01:59:48.661Z,21.73
2022-10-24T02:00:49.255Z,21.75
2022-10-24T02:01:49.853Z,21.73
2022-10-24T02:02:50.462Z,21.72
2022-10-24T02:03:51.086Z,21.73
2022-10-24T02:04:51.717Z,21.69
2022-10-24T02:05:52.384Z,21.73
2022-10-24T02:06:52.985Z,21.69
2022-10-24T02:07:53.585Z,21.73
2022-10-24T02:08:54.268Z,21.72
2022-10-24T02:09:54.854Z,21.70
2022-10-24T02:10:55.455Z,21.75
2022-10-24T02:11:56.057Z,21.69
2022-10-24T02:12:56.657Z,21.75
2022-10-24T02:13:57.268Z,21.66
2022-10-24T02:14:57.861Z,21.67
2022-10-24T02:15:58.473Z,21.57
2022-10-24T02:16:59.066Z,21.70
2022-10-24T02:17:59.672Z,21.70
2022-10-24T02:19:00.267Z,21.70
2022-10-24T02:20:00.869Z,21.72
2022-10-24T02:21:01.467Z,21.57
2022-10-24T02:22:02.069Z,21.69
2022-10-24T02:23:02.666Z,21.67
2022-10-24T02:24:03.269Z,21.64
2022-10-24T02:25:03.865Z,21.64
2022-10-24T02:26:04.463Z,21.69
2022-10-24T02:27:05.058Z,21.69
2022-10-24T02:28:05.655Z,21.57
2022-10-24T02:29:06.300Z,21.67
2022-10-24T02:30:06.898Z,21.67
2022-10-24T02:31:07.497Z,21.67
2022-10-24T02:32:08.102Z,21.60
2022-10-24T02:33:08.695Z,21.60
2022-10-24T02:34:09.431Z,21.69
2022-10-24T02:35:10.057Z,21.60
2022-10-24T02:36:10.663Z,21.58
2022-10-24T02:37:11.249Z,21.60
2022-10-24T02:38:11.848Z,21.60
2022-10-24T02:39:12.446Z,21.54
2022-10-24T02:40:13.049Z,21.69
2022-10-24T02:41:13.646Z,21.61
2022-10-24T02:42:14.254Z,21.57
2022-10-24T02:43:14.916Z,21.62
2022-10-24T02:44:15.515Z,21.60
2022-10-24T02:45:16.111Z,21.73
2022-10-24T02:46:16.709Z,21.60
2022-10-24T02:47:17.305Z,21.54
2022-10-24T02:48:18.754Z,21.62
2022-10-24T02:49:19.351Z,21.73
2022-10-24T02:50:19.998Z,21.67
2022-10-24T02:51:20.633Z,21.67
2022-10-24T02:52:21.209Z,21.60
2022-10-24T02:53:21.815Z,21.57
2022-10-24T02:54:22.414Z,21.69
2022-10-24T02:55:23.010Z,21.62
2022-10-24T02:56:23.611Z,21.57
2022-10-24T02:57:24.211Z,21.64
2022-10-24T02:58:24.810Z,21.64
2022-10-24T02:59:25.462Z,21.62
2022-10-24T03:00:26.089Z,21.61
2022-10-24T03:01:26.776Z,21.60
2022-10-24T03:02:27.450Z,21.67
2022-10-24T03:03:28.047Z,21.67
2022-10-24T03:04:28.651Z,21.55
2022-10-24T03:05:29.255Z,21.64
2022-10-24T03:06:29.856Z,21.51
2022-10-24T03:08:31.057Z,21.64
2022-10-24T03:09:31.656Z,21.62
2022-10-24T03:10:32.250Z,21.61
2022-10-24T03:11:32.848Z,21.61
2022-10-24T03:12:33.447Z,21.61
2022-10-24T03:13:34.044Z,21.60
2022-10-24T03:14:34.648Z,21.60
2022-10-24T03:15:35.263Z,21.61
2022-10-24T03:16:35.875Z,21.62
2022-10-24T03:17:36.471Z,21.57
2022-10-24T03:18:37.070Z,21.64
2022-10-24T03:19:37.666Z,21.60
2022-10-24T03:20:38.332Z,21.60
2022-10-24T03:21:38.928Z,21.58
2022-10-24T03:22:39.529Z,21.62
2022-10-24T03:23:40.128Z,21.60
2022-10-24T03:24:44.494Z,21.61
2022-10-24T03:25:42.318Z,21.61
2022-10-24T03:26:42.920Z,21.60
2022-10-24T03:27:43.947Z,21.62
2022-10-24T03:28:44.742Z,21.64
2022-10-24T03:29:45.342Z,21.58
2022-10-24T03:30:45.944Z,21.58
2022-10-24T03:31:46.571Z,21.61
2022-10-24T03:32:47.612Z,21.60
2022-10-24T03:33:48.477Z,21.60
2022-10-24T03:34:49.125Z,21.58
2022-10-24T03:35:49.721Z,21.57
2022-10-24T03:36:50.324Z,21.54
2022-10-24T03:37:50.976Z,21.58
2022-10-24T03:38:51.643Z,21.58
2022-10-24T03:39:52.240Z,21.60
2022-10-24T03:40:52.841Z,21.55
2022-10-24T03:41:53.504Z,21.58
2022-10-24T03:42:54.100Z,21.54
2022-10-24T03:43:54.700Z,21.58
2022-10-24T03:44:55.301Z,21.58
2022-10-24T03:45:55.897Z,21.57
2022-10-24T03:46:56.493Z,21.60
2022-10-24T03:47:57.089Z,21.55
2022-10-24T03:48:57.750Z,21.57
2022-10-24T03:49:58.386Z,21.61
2022-10-24T03:50:58.988Z,21.54
2022-10-24T03:51:59.583Z,21.57
2022-10-24T03:53:00.184Z,21.54
2022-10-24T03:54:00.831Z,21.54
2022-10-24T03:55:01.431Z,21.52
2022-10-24T03:56:02.033Z,21.55
2022-10-24T03:57:02.684Z,21.55
2022-10-24T03:58:03.282Z,21.52
2022-10-24T03:59:03.888Z,21.55
2022-10-24T04:00:04.487Z,21.57
2022-10-24T04:01:05.227Z,21.55
2022-10-24T04:02:05.935Z,21.54
2022-10-24T04:03:06.535Z,21.58
2022-10-24T04:04:07.130Z,21.54
2022-10-24T04:05:07.734Z,21.51
2022-10-24T04:06:08.386Z,21.54
2022-10-24T04:07:08.986Z,21.54
2022-10-24T04:08:09.583Z,21.50
2022-10-24T04:09:10.246Z,21.48
2022-10-24T04:10:10.846Z,21.52
2022-10-24T04:11:11.448Z,21.48
2022-10-24T04:12:12.042Z,21.54
2022-10-24T04:13:13.493Z,21.55
2022-10-24T04:14:14.091Z,21.46
2022-10-24T04:15:14.691Z,21.57
2022-10-24T04:16:15.287Z,21.50
2022-10-24T04:17:15.882Z,21.55
2022-10-24T04:18:16.480Z,21.46
2022-10-24T04:19:17.082Z,21.48
2022-10-24T04:20:17.681Z,21.46
2022-10-24T04:21:21.748Z,21.51
2022-10-24T04:22:21.960Z,21.46
2022-10-24T04:23:20.527Z,21.51
2022-10-24T04:24:21.127Z,21.48
2022-10-24T04:25:21.726Z,21.48
2022-10-24T04:26:22.321Z,21.54
2022-10-24T04:27:22.921Z,21.57
2022-10-24T04:28:23.522Z,21.46
2022-10-24T04:29:24.121Z,21.48
2022-10-24T04:30:24.787Z,21.51
2022-10-24T04:31:25.387Z,21.50
2022-10-24T04:32:25.988Z,21.48
2022-10-24T04:33:26.586Z,21.51
2022-10-24T04:34:27.184Z,21.54
2022-10-24T04:35:27.832Z,21.52
2022-10-24T04:36:28.429Z,21.48
2022-10-24T04:37:29.029Z,21.48
2022-10-24T04:38:33.314Z,21.48
2022-10-24T04:39:31.273Z,21.48
2022-10-24T04:40:31.875Z,21.54
2022-10-24T04:41:32.469Z,21.55
2022-10-24T04:42:33.063Z,21.55
2022-10-24T04:43:33.665Z,21.46
2022-10-24T04:44:34.270Z,21.46
2022-10-24T04:45:34.930Z,21.50
2022-10-24T04:46:35.530Z,21.48
2022-10-24T04:47:36.131Z,21.52
2022-10-24T04:48:36.726Z,21.52
2022-10-24T04:49:37.325Z,21.52
2022-10-24T04:50:37.922Z,21.51
2022-10-24T04:51:38.524Z,21.48
2022-10-24T04:52:39.125Z,21.48
2022-10-24T04:53:39.726Z,21.55
2022-10-24T04:54:40.328Z,21.43
2022-10-24T04:55:40.931Z,21.48
2022-10-24T04:56:41.527Z,21.51
2022-10-24T04:57:42.339Z,21.46
2022-10-24T04:58:43.073Z,21.52
2022-10-24T04:59:43.673Z,21.43
2022-10-24T05:00:44.271Z,21.45
2022-10-24T05:01:44.968Z,21.51
2022-10-24T05:02:45.671Z,21.50
2022-10-24T05:03:46.423Z,21.48
2022-10-24T05:04:47.022Z,21.51
2022-10-24T05:05:47.626Z,21.50
2022-10-24T05:06:48.224Z,21.48
2022-10-24T05:07:48.822Z,21.43
2022-10-24T05:08:49.417Z,21.46
2022-10-24T05:09:50.020Z,21.52
2022-10-24T05:10:50.761Z,21.43
2022-10-24T05:11:51.361Z,21.50
2022-10-24T05:12:51.955Z,21.45
2022-10-24T05:13:52.553Z,21.51
2022-10-24T05:14:53.215Z,21.45
2022-10-24T05:15:53.814Z,21.50
2022-10-24T05:16:54.888Z,21.48
2022-10-24T05:17:55.523Z,21.48
2022-10-24T05:18:56.125Z,21.45
2022-10-24T05:19:56.843Z,21.45
2022-10-24T05:20:57.475Z,21.45
2022-10-24T05:21:58.109Z,21.43
2022-10-24T05:22:58.706Z,21.45
2022-10-24T05:23:59.311Z,21.42
2022-10-24T05:24:59.909Z,21.42
2022-10-24T05:26:00.510Z,21.46
2022-10-24T05:27:01.107Z,21.48
2022-10-24T05:28:01.705Z,21.50
2022-10-24T05:29:02.336Z,21.46
2022-10-24T05:30:02.931Z,21.50
2022-10-24T05:31:03.530Z,21.42
2022-10-24T05:32:04.181Z,21.42
2022-10-24T05:33:05.626Z,21.45
2022-10-24T05:34:06.224Z,21.40
2022-10-24T05:35:07.671Z,21.42
2022-10-24T05:36:08.271Z,21.45
2022-10-24T05:37:08.866Z,21.40
2022-10-24T05:38:09.465Z,21.43
2022-10-24T05:39:10.060Z,21.50
2022-10-24T05:40:11.458Z,21.39
2022-10-24T05:41:12.103Z,21.43
2022-10-24T05:42:12.693Z,21.45
2022-10-24T05:43:13.293Z,21.45
2022-10-24T05:44:13.891Z,21.42
2022-10-24T05:45:14.489Z,21.45
2022-10-24T05:46:15.089Z,21.48
2022-10-24T05:47:15.682Z,21.45
2022-10-24T05:48:16.277Z,21.42
2022-10-24T05:49:16.878Z,21.40
2022-10-24T05:50:17.472Z,21.43
2022-10-24T05:51:18.069Z,21.48
2022-10-24T05:52:18.667Z,21.43
2022-10-24T05:53:19.393Z,21.45
2022-10-24T05:54:19.981Z,21.42
2022-10-24T05:55:20.575Z,21.42
2022-10-24T05:56:21.175Z,21.40
2022-10-24T05:57:21.924Z,21.45
2022-10-24T05:58:22.525Z,21.43
2022-10-24T05:59:23.123Z,21.43
2022-10-24T06:00:23.786Z,21.45
2022-10-24T06:01:24.480Z,21.42
2022-10-24T06:02:25.248Z,21.46
2022-10-24T06:03:26.683Z,21.42
2022-10-24T06:04:27.288Z,21.45
2022-10-24T06:05:27.946Z,21.45
2022-10-24T06:06:28.545Z,21.42
2022-10-24T06:07:29.142Z,21.46
2022-10-24T06:08:29.742Z,21.48
2022-10-24T06:09:30.337Z,21.45
2022-10-24T06:10:30.933Z,21.42
2022-10-24T06:11:31.531Z,21.32
2022-10-24T06:12:32.126Z,21.42
2022-10-24T06:13:35.405Z,21.33
2022-10-24T06:14:34.315Z,21.36
2022-10-24T06:15:34.910Z,21.45
2022-10-24T06:16:35.512Z,21.45
2022-10-24T06:17:36.108Z,21.37
2022-10-24T06:18:36.704Z,21.43
2022-10-24T06:19:37.368Z,21.35
2022-10-24T06:20:37.951Z,21.33
2022-10-24T06:21:38.556Z,21.39
2022-10-24T06:22:39.156Z,21.35
2022-10-24T06:23:39.754Z,21.35
2022-10-24T06:24:40.357Z,21.32
2022-10-24T06:25:40.955Z,21.35
2022-10-24T06:26:41.553Z,21.40
2022-10-24T06:27:42.152Z,21.35
2022-10-24T06:28:42.748Z,21.33
2022-10-24T06:29:43.350Z,21.39
2022-10-24T06:30:43.949Z,21.37
2022-10-24T06:31:44.550Z,21.33
2022-10-24T06:32:45.174Z,21.33
2022-10-24T06:33:45.847Z,21.33
2022-10-24T06:34:46.464Z,21.39
2022-10-24T06:35:47.123Z,21.36
2022-10-24T06:36:48.573Z,21.37
2022-10-24T06:37:49.391Z,21.35
2022-10-24T06:38:50.169Z,21.33
2022-10-24T06:39:50.766Z,21.37
2022-10-24T06:40:51.418Z,21.33
2022-10-24T06:41:52.866Z,21.39
2022-10-24T06:42:53.528Z,21.39
2022-10-24T06:43:54.130Z,21.42
2022-10-24T06:44:54.764Z,21.36
2022-10-24T06:45:55.378Z,21.37
2022-10-24T06:46:55.976Z,21.35
2022-10-24T06:47:56.815Z,21.39
2022-10-24T06:48:57.644Z,21.37
2022-10-24T06:49:58.325Z,21.35
2022-10-24T06:50:58.989Z,21.33
2022-10-24T06:51:59.661Z,21.35
2022-10-24T06:53:01.060Z,21.37
2022-10-24T06:54:01.657Z,21.42
2022-10-24T06:55:02.253Z,21.35
2022-10-24T06:56:02.852Z,21.40
2022-10-24T06:57:03.455Z,21.36
2022-10-24T06:58:04.046Z,21.35
2022-10-24T06:59:04.637Z,21.37
2022-10-24T07:00:05.238Z,21.33
2022-10-24T07:01:05.900Z,21.35
2022-10-24T07:02:06.670Z,21.36
2022-10-24T07:03:07.348Z,21.36
2022-10-24T07:04:07.948Z,21.35
2022-10-24T07:05:08.544Z,21.32
2022-10-24T07:06:09.196Z,21.42
2022-10-24T07:07:09.803Z,21.37
2022-10-24T07:08:10.397Z,21.42
2022-10-24T07:09:14.326Z,21.35
2022-10-24T07:10:12.591Z,21.37
2022-10-24T07:11:13.192Z,21.40
2022-10-24T07:12:13.887Z,21.43
2022-10-24T07:13:14.460Z,21.33
2022-10-24T07:14:15.061Z,21.35
2022-10-24T07:15:15.659Z,21.37
2022-10-24T07:16:16.310Z,21.37
2022-10-24T07:17:16.923Z,21.36
2022-10-24T07:18:17.526Z,21.39
2022-10-24T07:19:18.123Z,21.42
2022-10-24T07:20:18.724Z,21.36
2022-10-24T07:21:19.325Z,21.37
2022-10-24T07:22:19.921Z,21.37
2022-10-24T07:23:20.521Z,21.37
2022-10-24T07:24:21.293Z,21.36
2022-10-24T07:25:21.895Z,21.33
2022-10-24T07:26:22.488Z,21.37
2022-10-24T07:27:23.084Z,21.39
2022-10-24T07:28:23.680Z,21.35
2022-10-24T07:29:24.282Z,21.46
2022-10-24T07:30:24.994Z,21.42
2022-10-24T07:31:25.602Z,21.39
2022-10-24T07:32:26.199Z,21.37
2022-10-24T07:33:26.795Z,21.39
2022-10-24T07:34:27.394Z,21.39
2022-10-24T07:35:28.795Z,21.40
2022-10-24T07:36:29.392Z,21.42
2022-10-24T07:37:30.063Z,21.42
2022-10-24T07:38:30.645Z,21.33
2022-10-24T07:39:31.291Z,21.42
2022-10-24T07:40:31.888Z,21.33
2022-10-24T07:41:32.488Z,21.39
2022-10-24T07:42:33.136Z,21.43
2022-10-24T07:43:33.739Z,21.45
2022-10-24T07:44:35.191Z,21.37
2022-10-24T07:45:35.790Z,21.35
2022-10-24T07:46:36.393Z,21.36
2022-10-24T07:47:36.995Z,21.39
2022-10-24T07:48:37.664Z,21.36
2022-10-24T07:49:38.264Z,21.37
2022-10-24T07:50:38.859Z,21.35
2022-10-24T07:51:39.458Z,21.39
2022-10-24T07:52:40.060Z,21.40
2022-10-24T07:53:40.811Z,21.36
2022-10-24T07:54:41.412Z,21.29
2022-10-24T07:55:42.008Z,21.37
2022-10-24T07:56:42.610Z,21.33
2022-10-24T07:57:43.634Z,21.39
2022-10-24T07:58:44.437Z,21.36
2022-10-24T07:59:45.038Z,21.37
2022-10-24T08:00:45.792Z,21.36
2022-10-24T08:01:46.439Z,21.32
2022-10-24T08:02:47.125Z,21.35
2022-10-24T08:03:48.534Z,21.40
2022-10-24T08:04:49.133Z,21.30
2022-10-24T08:05:49.730Z,21.35
2022-10-24T08:06:50.329Z,21.39
2022-10-24T08:07:56.012Z,21.35
2022-10-24T08:08:52.516Z,21.39
2022-10-24T08:09:53.116Z,21.42
2022-10-24T08:10:53.766Z,21.42
2022-10-24T08:11:54.369Z,21.39
2022-10-24T08:12:54.969Z,21.36
2022-10-24T08:13:55.564Z,21.37
2022-10-24T08:14:56.165Z,21.36
2022-10-24T08:15:56.767Z,21.42
2022-10-24T08:16:57.464Z,21.40
2022-10-24T08:17:58.031Z,21.42
2022-10-24T08:18:58.632Z,21.35
2022-10-24T08:19:59.231Z,21.35
2022-10-24T08:20:59.830Z,21.43
2022-10-24T08:22:00.428Z,21.36
2022-10-24T08:23:01.027Z,21.40
2022-10-24T08:24:01.623Z,21.39
2022-10-24T08:25:02.225Z,21.39
2022-10-24T08:26:02.826Z,21.40
2022-10-24T08:27:03.534Z,21.39
2022-10-24T08:28:08.134Z,21.40
2022-10-24T08:29:05.726Z,21.30
2022-10-24T08:30:06.325Z,21.37
2022-10-24T08:31:06.917Z,21.36
2022-10-24T08:32:07.511Z,21.39
2022-10-24T08:33:08.111Z,21.35
2022-10-24T08:34:08.706Z,21.36
2022-10-24T08:35:09.306Z,21.39
2022-10-24T08:36:09.903Z,21.37
2022-10-24T08:37:10.496Z,21.35
2022-10-24T08:38:11.098Z,21.39
2022-10-24T08:39:12.547Z,21.33
2022-10-24T08:40:13.148Z,21.32
2022-10-24T08:41:13.747Z,21.32
2022-10-24T08:42:14.425Z,21.40
2022-10-24T08:43:15.060Z,21.35
2022-10-24T08:44:15.655Z,21.36
2022-10-24T08:45:16.250Z,21.39
2022-10-24T08:46:16.850Z,21.37
2022-10-24T08:47:17.454Z,21.37
2022-10-24T08:48:18.054Z,21.33
2022-10-24T08:49:18.659Z,21.39
2022-10-24T08:50:19.252Z,21.35
2022-10-24T08:51:19.897Z,21.30
2022-10-24T08:52:20.513Z,21.40
2022-10-24T08:53:21.097Z,21.36
2022-10-24T08:54:21.913Z,21.36
2022-10-24T08:55:43.924Z,21.39
2022-10-24T08:56:24.110Z,21.35
2022-10-24T08:57:24.740Z,21.39
2022-10-24T08:58:25.488Z,21.36
2022-10-24T08:59:26.088Z,21.32
2022-10-24T09:00:26.684Z,21.36
2022-10-24T09:01:27.376Z,21.33
2022-10-24T09:02:28.145Z,21.36
2022-10-24T09:03:43.896Z,21.43
2022-10-24T09:04:30.382Z,21.37
2022-10-24T09:05:31.779Z,21.40
2022-10-24T09:06:32.374Z,21.36
2022-10-24T09:07:33.121Z,21.32
2022-10-24T09:08:33.721Z,21.42
2022-10-24T09:09:34.317Z,21.37
2022-10-24T09:10:34.916Z,21.32
2022-10-24T09:11:35.512Z,21.42
2022-10-24T09:12:36.115Z,21.39
2022-10-24T09:13:36.711Z,21.37
2022-10-24T09:14:37.308Z,21.39
2022-10-24T09:15:37.904Z,21.37
2022-10-24T09:16:38.502Z,21.35
2022-10-24T09:17:39.113Z,21.40
2022-10-24T09:18:39.698Z,21.36
2022-10-24T09:19:40.298Z,21.42
2022-10-24T09:20:40.899Z,21.36
2022-10-24T09:21:41.501Z,21.37
2022-10-24T09:22:44.224Z,21.42
2022-10-24T09:23:43.764Z,21.35
2022-10-24T09:24:44.366Z,21.40
2022-10-24T09:25:44.965Z,21.32
2022-10-24T09:26:45.567Z,21.33
2022-10-24T09:27:46.565Z,21.35
2022-10-24T09:28:47.378Z,21.37
2022-10-24T09:29:47.975Z,21.39
2022-10-24T09:30:48.580Z,21.32
2022-10-24T09:31:49.249Z,21.40
2022-10-24T09:32:49.851Z,21.36
2022-10-24T09:33:50.448Z,21.42
2022-10-24T09:34:51.047Z,21.37
2022-10-24T09:35:51.643Z,21.35
2022-10-24T09:36:52.244Z,21.33
2022-10-24T09:37:53.117Z,21.36
2022-10-24T09:38:53.863Z,21.36
2022-10-24T09:39:54.460Z,21.39
2022-10-24T09:40:55.059Z,21.42
2022-10-24T09:41:55.662Z,21.33
2022-10-24T09:42:56.262Z,21.42
2022-10-24T09:43:56.910Z,21.42
2022-10-24T09:44:57.562Z,21.29
2022-10-24T09:45:58.160Z,21.32
2022-10-24T09:46:58.774Z,21.35
2022-10-24T09:47:59.374Z,21.36
2022-10-24T09:48:59.972Z,21.39
2022-10-24T09:50:00.570Z,21.42
2022-10-24T09:51:01.173Z,21.40
2022-10-24T09:52:01.775Z,21.39
2022-10-24T09:53:02.374Z,21.35
2022-10-24T09:54:02.976Z,21.32
2022-10-24T09:55:03.578Z,21.29
2022-10-24T09:56:04.178Z,21.37
2022-10-24T09:57:05.690Z,21.39
2022-10-24T09:58:06.319Z,21.29
2022-10-24T09:59:06.968Z,21.42
2022-10-24T10:00:07.569Z,21.32
2022-10-24T10:01:08.264Z,21.33
2022-10-24T10:02:09.046Z,21.37
2022-10-24T10:03:09.661Z,21.36
2022-10-24T10:04:13.078Z,21.42
2022-10-24T10:05:11.912Z,21.39
2022-10-24T10:06:12.725Z,21.43
2022-10-24T10:07:13.320Z,21.36
2022-10-24T10:08:13.916Z,21.40
2022-10-24T10:09:14.513Z,21.33
2022-10-24T10:10:15.114Z,21.40
2022-10-24T10:11:15.706Z,21.33
2022-10-24T10:12:16.301Z,21.29
2022-10-24T10:13:16.904Z,21.32
2022-10-24T10:14:17.498Z,21.39
2022-10-24T10:15:18.249Z,21.33
2022-10-24T10:16:18.849Z,21.39
2022-10-24T10:17:19.447Z,21.46
2022-10-24T10:18:20.042Z,21.40
2022-10-24T10:19:20.643Z,21.39
2022-10-24T10:20:21.240Z,21.33
2022-10-24T10:21:21.842Z,21.36
2022-10-24T10:22:22.507Z,21.36
2022-10-24T10:23:23.105Z,21.37
2022-10-24T10:24:23.709Z,21.36
2022-10-24T10:25:24.314Z,21.35
2022-10-24T10:26:24.983Z,21.39
2022-10-24T10:27:25.583Z,21.39
2022-10-24T10:28:26.184Z,21.35
2022-10-24T10:29:26.786Z,21.35
2022-10-24T10:30:27.382Z,21.46
2022-10-24T10:31:27.994Z,21.35
2022-10-24T10:32:28.582Z,21.39
2022-10-24T10:33:29.209Z,21.32
2022-10-24T10:34:29.810Z,21.35
2022-10-24T10:35:30.408Z,21.35
2022-10-24T10:36:31.005Z,21.36
2022-10-24T10:37:31.607Z,21.35
2022-10-24T10:38:32.216Z,21.39
2022-10-24T10:39:32.809Z,21.33
2022-10-24T10:40:33.410Z,21.39
2022-10-24T10:41:34.008Z,21.33
2022-10-24T10:42:34.609Z,21.43
2022-10-24T10:43:35.217Z,21.30
2022-10-24T10:44:35.803Z,21.36
2022-10-24T10:45:36.402Z,21.33
2022-10-24T10:46:36.998Z,21.39
2022-10-24T10:47:37.596Z,21.36
2022-10-24T10:48:38.192Z,21.33
2022-10-24T10:49:38.843Z,21.36
2022-10-24T10:50:39.441Z,21.33
2022-10-24T10:51:40.188Z,21.37
2022-10-24T10:52:40.785Z,21.32
2022-10-24T10:53:41.384Z,21.36
2022-10-24T10:54:41.983Z,21.33
2022-10-24T10:55:42.582Z,21.36
2022-10-24T10:56:43.180Z,21.39
2022-10-24T10:57:43.783Z,21.43
2022-10-24T10:58:44.383Z,21.30
2022-10-24T10:59:44.987Z,21.39
2022-10-24T11:00:45.638Z,21.36
2022-10-24T11:01:46.485Z,21.32
2022-10-24T11:02:49.494Z,21.33
2022-10-24T11:03:49.529Z,21.42
2022-10-24T11:04:50.178Z,21.35
2022-10-24T11:05:50.775Z,21.37
2022-10-24T11:06:51.402Z,21.45
2022-10-24T11:07:51.995Z,21.45
2022-10-24T11:08:52.593Z,21.36
2022-10-24T11:09:53.191Z,21.40
2022-10-24T11:10:54.639Z,21.36
2022-10-24T11:11:55.239Z,21.42
2022-10-24T11:12:55.839Z,21.33
2022-10-24T11:13:56.440Z,21.36
2022-10-24T11:14:57.040Z,21.42
2022-10-24T11:15:57.642Z,21.45
2022-10-24T11:16:58.247Z,21.35
2022-10-24T11:17:58.892Z,21.37
2022-10-24T11:18:59.559Z,21.36
2022-10-24T11:20:00.229Z,21.42
2022-10-24T11:21:00.828Z,21.43
2022-10-24T11:22:01.430Z,21.48
2022-10-24T11:23:02.030Z,21.42
2022-10-24T11:24:02.633Z,21.43
2022-10-24T11:25:03.233Z,21.45
2022-10-24T11:26:03.835Z,21.46
2022-10-24T11:27:04.439Z,21.48
2022-10-24T11:28:05.038Z,21.46
2022-10-24T11:29:05.634Z,21.50
2022-10-24T11:30:06.237Z,21.39
2022-10-24T11:31:06.829Z,21.39
2022-10-24T11:32:08.330Z,21.40
2022-10-24T11:33:08.923Z,21.42
2022-10-24T11:34:09.540Z,21.42
2022-10-24T11:35:11.042Z,21.46
2022-10-24T11:36:11.689Z,21.43
2022-10-24T11:37:12.351Z,21.40
2022-10-24T11:38:13.099Z,21.40
2022-10-24T11:39:13.749Z,21.50
2022-10-24T11:40:14.531Z,21.40
2022-10-24T11:41:15.272Z,21.39
2022-10-24T11:42:15.912Z,21.51
2022-10-24T11:43:16.597Z,21.39
2022-10-24T11:44:17.274Z,21.43
2022-10-24T11:45:17.880Z,21.40
2022-10-24T11:46:18.478Z,21.40
2022-10-24T11:47:19.078Z,21.40
2022-10-24T11:48:19.746Z,21.45
2022-10-24T11:49:20.344Z,21.50
2022-10-24T11:50:23.311Z,21.46
2022-10-24T11:51:21.609Z,21.40
2022-10-24T11:52:22.217Z,21.43
2022-10-24T11:53:22.812Z,21.46
2022-10-24T11:54:23.413Z,21.42
2022-10-24T11:55:24.019Z,21.40
2022-10-24T11:56:27.107Z,21.46
2022-10-24T11:57:26.205Z,21.40
2022-10-24T11:58:26.803Z,21.42
2022-10-24T11:59:27.402Z,21.45
2022-10-24T12:00:28.000Z,21.40
2022-10-24T12:01:28.625Z,21.46
2022-10-24T12:02:29.237Z,21.43
2022-10-24T12:03:29.824Z,21.48
2022-10-24T12:04:30.434Z,21.43
2022-10-24T12:05:31.043Z,21.45
2022-10-24T12:06:31.658Z,21.46
2022-10-24T12:07:32.255Z,21.50
2022-10-24T12:08:32.858Z,21.45
2022-10-24T12:09:34.470Z,21.48
2022-10-24T12:10:35.042Z,21.42
2022-10-24T12:11:35.638Z,21.46
2022-10-24T12:12:36.236Z,21.51
2022-10-24T12:13:37.810Z,21.40
2022-10-24T12:14:38.406Z,21.45
2022-10-24T12:15:41.382Z,21.46
2022-10-24T12:16:40.737Z,21.45
2022-10-24T12:17:41.331Z,21.48
2022-10-24T12:18:41.932Z,21.40
2022-10-24T12:19:42.559Z,21.39
2022-10-24T12:20:43.335Z,21.40
2022-10-24T12:21:43.934Z,21.45
2022-10-24T12:22:44.858Z,21.40
2022-10-24T12:23:45.710Z,21.48
2022-10-24T12:24:46.308Z,21.40
2022-10-24T12:25:48.088Z,21.45
2022-10-24T12:26:48.503Z,21.39
2022-10-24T12:27:49.103Z,21.39
2022-10-24T12:28:49.706Z,21.48
2022-10-24T12:29:50.309Z,21.46
2022-10-24T12:31:52.249Z,21.48
2022-10-24T12:32:52.852Z,21.43
2022-10-24T12:33:53.446Z,21.40
2022-10-24T12:34:58.383Z,21.40
2022-10-24T12:35:54.753Z,21.46
2022-10-24T12:36:55.351Z,21.45
2022-10-24T12:37:56.799Z,21.39
2022-10-24T12:38:57.396Z,21.43
2022-10-24T12:39:58.750Z,21.40
2022-10-24T12:40:59.404Z,21.42
2022-10-24T12:42:00.058Z,21.39
2022-10-24T12:43:00.727Z,21.42
2022-10-24T12:44:01.375Z,21.39
2022-10-24T12:45:01.969Z,21.45
2022-10-24T12:46:04.022Z,21.42
2022-10-24T12:47:04.307Z,21.42
2022-10-24T12:48:04.904Z,21.46
2022-10-24T12:49:05.503Z,21.43
2022-10-24T12:50:06.104Z,21.43
2022-10-24T12:51:06.709Z,21.43
2022-10-24T12:52:07.311Z,21.46
2022-10-24T12:53:07.913Z,21.45
2022-10-24T12:54:08.517Z,21.46
2022-10-24T12:55:09.115Z,21.46
2022-10-24T12:56:09.753Z,21.42
2022-10-24T12:57:10.371Z,21.46
2022-10-24T12:58:10.967Z,21.46
2022-10-24T12:59:11.571Z,21.46
2022-10-24T13:00:12.172Z,21.48
2022-10-24T13:01:12.859Z,21.48
2022-10-24T13:02:13.643Z,21.48
2022-10-24T13:03:14.132Z,21.45